createdAt,value
2022-11-08T00:01:06.427Z,8.71
2022-11-08T00:03:13.937Z,8.73
2022-11-08T00:05:32.929Z,8.79
2022-11-08T00:07:51.576Z,8.81
2022-11-08T00:10:12.883Z,8.83
2022-11-08T00:12:32.106Z,8.84
2022-11-08T00:14:38.572Z,8.86
2022-11-08T00:16:48.364Z,8.87
2022-11-08T00:18:54.671Z,8.87
2022-11-08T00:21:05.399Z,8.83
2022-11-08T00:23:12.520Z,8.78
2022-11-08T00:25:19.196Z,8.78
2022-11-08T00:27:27.916Z,8.76
2022-11-08T00:29:36.626Z,8.76
2022-11-08T00:31:43.302Z,8.75
2022-11-08T00:33:52.276Z,8.74
2022-11-08T00:36:02.422Z,8.72
2022-11-08T00:38:08.945Z,8.74
2022-11-08T00:40:17.040Z,8.74
2022-11-08T00:42:26.022Z,8.74
2022-11-08T00:44:32.542Z,8.68
2022-11-08T00:46:39.367Z,8.69
2022-11-08T00:48:46.547Z,8.69
2022-11-08T00:50:56.393Z,8.69
2022-11-08T00:53:02.756Z,8.70
2022-11-08T00:55:11.420Z,8.72
2022-11-08T00:57:17.995Z,8.75
2022-11-08T00:59:25.835Z,8.74
2022-11-08T01:01:33.312Z,8.72
2022-11-08T01:03:39.795Z,8.68
2022-11-08T01:05:46.260Z,8.67
2022-11-08T01:07:59.380Z,8.65
2022-11-08T01:10:05.850Z,8.62
2022-11-08T01:12:12.422Z,8.63
2022-11-08T01:14:19.791Z,8.66
2022-11-08T01:16:29.541Z,8.65
2022-11-08T01:18:36.005Z,8.71
2022-11-08T01:20:46.317Z,8.78
2022-11-08T01:22:52.725Z,8.79
2022-11-08T01:25:01.811Z,8.80
2022-11-08T01:27:08.937Z,8.86
2022-11-08T01:29:15.398Z,8.88
2022-11-08T01:31:25.760Z,8.88
2022-11-08T01:33:33.099Z,8.91
2022-11-08T01:35:40.326Z,8.94
2022-11-08T01:37:46.042Z,8.93
2022-11-08T01:39:52.643Z,8.94
2022-11-08T01:42:01.046Z,8.89
2022-11-08T01:44:08.927Z,8.86
2022-11-08T01:46:36.598Z,8.83
2022-11-08T01:48:49.531Z,8.80
2022-11-08T01:51:00.553Z,8.72
2022-11-08T01:53:07.327Z,8.64
2022-11-08T01:55:22.199Z,8.68
2022-11-08T01:57:41.407Z,8.63
2022-11-08T01:59:55.922Z,8.66
2022-11-08T02:02:02.425Z,8.64
2022-11-08T02:04:10.615Z,8.57
2022-11-08T02:06:18.537Z,8.57
2022-11-08T02:08:34.728Z,8.53
2022-11-08T02:10:45.818Z,8.51
2022-11-08T02:12:56.720Z,8.51
2022-11-08T02:15:03.441Z,8.40
2022-11-08T02:17:10.957Z,8.43
2022-11-08T02:19:30.416Z,8.45
2022-11-08T02:21:49.948Z,8.44
2022-11-08T02:24:01.450Z,8.38
2022-11-08T02:26:08.142Z,8.39
2022-11-08T02:28:13.845Z,8.43
2022-11-08T02:30:19.606Z,8.44
2022-11-08T02:32:27.139Z,8.40
2022-11-08T02:34:43.663Z,8.37
2022-11-08T02:36:52.045Z,8.32
2022-11-08T02:39:01.483Z,8.38
2022-11-08T02:41:08.445Z,8.40
2022-11-08T02:43:14.139Z,8.43
2022-11-08T02:45:20.864Z,8.42
2022-11-08T02:47:27.286Z,8.46
2022-11-08T02:49:33.009Z,8.48
2022-11-08T02:51:39.577Z,8.47
2022-11-08T02:53:45.425Z,8.49
2022-11-08T02:55:56.389Z,8.47
2022-11-08T02:58:03.343Z,8.50
2022-11-08T03:00:11.384Z,8.54
2022-11-08T03:02:17.349Z,8.53
2022-11-08T03:04:24.070Z,8.52
2022-11-08T03:06:29.773Z,8.53
2022-11-08T03:08:35.975Z,8.52
2022-11-08T03:10:42.553Z,8.50
2022-11-08T03:12:50.978Z,8.47
2022-11-08T03:14:56.729Z,8.48
2022-11-08T03:17:04.859Z,8.46
2022-11-08T03:19:11.934Z,8.49
2022-11-08T03:21:18.326Z,8.48
2022-11-08T03:23:24.861Z,8.48
2022-11-08T03:25:31.327Z,8.51
2022-11-08T03:27:38.081Z,8.53
2022-11-08T03:29:47.524Z,8.58
2022-11-08T03:31:53.341Z,8.54
2022-11-08T03:33:59.158Z,8.59
2022-11-08T03:36:05.806Z,8.60
2022-11-08T03:38:11.644Z,8.64
2022-11-08T03:40:17.396Z,8.68
2022-11-08T03:42:23.883Z,8.69
2022-11-08T03:44:29.554Z,8.70
2022-11-08T03:46:37.860Z,8.74
2022-11-08T03:48:44.428Z,8.76
2022-11-08T03:50:50.296Z,8.78
2022-11-08T03:52:58.734Z,8.72
2022-11-08T03:55:05.292Z,8.70
2022-11-08T03:57:11.055Z,8.63
2022-11-08T03:59:17.097Z,8.59
2022-11-08T04:01:23.733Z,8.52
2022-11-08T04:03:32.246Z,8.44
2022-11-08T04:05:37.978Z,8.32
2022-11-08T04:07:45.164Z,8.18
2022-11-08T04:09:50.858Z,8.04
2022-11-08T04:12:08.967Z,7.98
2022-11-08T04:14:30.876Z,7.87
2022-11-08T04:16:39.083Z,7.66
2022-11-08T04:19:02.476Z,7.54
2022-11-08T04:21:22.480Z,7.24
2022-11-08T04:23:31.387Z,7.11
2022-11-08T04:25:37.119Z,6.94
2022-11-08T04:27:44.100Z,6.68
2022-11-08T04:29:49.809Z,6.45
2022-11-08T04:31:55.499Z,6.25
2022-11-08T04:34:05.523Z,6.12
2022-11-08T04:36:14.850Z,6.00
2022-11-08T04:38:21.761Z,5.95
2022-11-08T04:40:28.595Z,5.84
2022-11-08T04:42:34.370Z,5.77
2022-11-08T04:44:40.108Z,5.67
2022-11-08T04:46:46.698Z,5.59
2022-11-08T04:48:56.296Z,5.46
2022-11-08T04:51:11.098Z,5.30
2022-11-08T04:53:17.608Z,5.25
2022-11-08T04:55:25.086Z,5.18
2022-11-08T04:57:32.208Z,5.20
2022-11-08T04:59:41.215Z,5.22
2022-11-08T05:01:47.028Z,5.22
2022-11-08T05:03:55.424Z,5.22
2022-11-08T05:06:08.405Z,5.26
2022-11-08T05:08:14.206Z,5.29
2022-11-08T05:10:20.275Z,5.29
2022-11-08T05:12:26.910Z,5.30
2022-11-08T05:14:32.665Z,5.27
2022-11-08T05:16:38.437Z,5.27
2022-11-08T05:18:46.160Z,5.24
2022-11-08T05:21:10.395Z,5.25
2022-11-08T05:23:25.500Z,5.23
2022-11-08T05:25:33.024Z,5.22
2022-11-08T05:27:38.886Z,5.17
2022-11-08T05:29:44.631Z,5.08
2022-11-08T05:31:51.162Z,5.03
2022-11-08T05:33:56.865Z,4.99
2022-11-08T05:36:06.262Z,5.02
2022-11-08T05:38:12.908Z,5.06
2022-11-08T05:40:22.362Z,5.12
2022-11-08T05:42:28.019Z,5.15
2022-11-08T05:44:34.639Z,5.17
2022-11-08T05:46:41.361Z,5.28
2022-11-08T05:48:49.674Z,5.33
2022-11-08T05:50:56.435Z,5.42
2022-11-08T05:53:02.457Z,5.51
2022-11-08T05:55:09.775Z,5.54
2022-11-08T05:59:44.749Z,5.89
2022-11-08T06:01:50.570Z,5.93
2022-11-08T06:03:57.181Z,5.98
2022-11-08T06:06:06.045Z,6.02
2022-11-08T06:08:12.036Z,6.08
2022-11-08T06:10:25.629Z,6.19
2022-11-08T06:12:34.385Z,6.29
2022-11-08T06:14:40.134Z,6.38
2022-11-08T06:16:46.696Z,6.46
2022-11-08T06:18:52.701Z,6.50
2022-11-08T06:20:58.636Z,6.52
2022-11-08T06:23:05.406Z,6.59
2022-11-08T06:25:12.334Z,6.62
2022-11-08T06:27:18.117Z,6.66
2022-11-08T06:29:27.345Z,6.74
2022-11-08T06:31:33.082Z,6.80
2022-11-08T06:33:39.013Z,6.89
2022-11-08T06:35:46.117Z,6.94
2022-11-08T06:37:54.430Z,6.98
2022-11-08T06:40:03.413Z,7.04
2022-11-08T06:42:10.041Z,7.09
2022-11-08T06:44:15.818Z,7.17
2022-11-08T06:46:26.088Z,7.26
2022-11-08T06:48:36.129Z,7.32
2022-11-08T06:50:42.110Z,7.40
2022-11-08T06:53:10.911Z,7.48
2022-11-08T06:55:17.663Z,7.57
2022-11-08T06:57:23.477Z,7.70
2022-11-08T06:59:32.722Z,7.84
2022-11-08T07:01:45.664Z,7.99
2022-11-08T07:03:51.748Z,8.12
2022-11-08T07:05:57.511Z,8.22
2022-11-08T07:08:05.384Z,8.31
2022-11-08T07:10:18.856Z,8.45
2022-11-08T07:12:24.635Z,8.70
2022-11-08T07:14:31.194Z,9.10
2022-11-08T07:16:37.045Z,9.62
2022-11-08T07:18:45.827Z,10.03
2022-11-08T07:20:52.549Z,10.41
2022-11-08T07:23:02.133Z,10.75
2022-11-08T07:25:09.763Z,11.11
2022-11-08T07:27:16.373Z,11.57
2022-11-08T07:29:22.292Z,11.98
2022-11-08T07:31:28.189Z,12.34
2022-11-08T07:33:35.398Z,12.65
2022-11-08T07:35:44.129Z,12.98
2022-11-08T07:37:50.459Z,13.27
2022-11-08T07:39:57.099Z,13.47
2022-11-08T07:42:02.822Z,13.67
2022-11-08T07:44:09.197Z,13.84
2022-11-08T07:46:15.807Z,13.99
2022-11-08T07:48:21.613Z,14.13
2022-11-08T07:50:27.572Z,14.31
2022-11-08T07:52:36.909Z,14.31
2022-11-08T07:54:42.661Z,14.20
2022-11-08T07:56:52.945Z,14.25
2022-11-08T07:58:59.524Z,14.14
2022-11-08T08:01:07.225Z,13.87
2022-11-08T08:03:18.199Z,13.75
2022-11-08T08:05:26.343Z,13.83
2022-11-08T08:07:32.167Z,13.72
2022-11-08T08:09:43.547Z,13.75
2022-11-08T08:11:50.256Z,13.62
2022-11-08T08:13:58.566Z,13.84
2022-11-08T08:16:04.970Z,13.71
2022-11-08T08:18:13.655Z,13.84
2022-11-08T08:20:19.714Z,14.02
2022-11-08T08:22:40.195Z,14.27
2022-11-08T08:24:49.663Z,14.54
2022-11-08T08:26:55.935Z,14.66
2022-11-08T08:29:01.706Z,14.65
2022-11-08T08:31:09.844Z,14.80
2022-11-08T08:33:33.714Z,14.96
2022-11-08T08:35:43.189Z,15.34
2022-11-08T08:37:49.814Z,15.53
2022-11-08T08:39:58.218Z,15.80
2022-11-08T08:42:04.798Z,15.93
2022-11-08T08:44:11.651Z,16.18
2022-11-08T08:46:17.581Z,16.37
2022-11-08T08:48:24.099Z,16.36
2022-11-08T08:50:34.833Z,16.64
2022-11-08T08:52:40.799Z,17.18
2022-11-08T08:54:46.933Z,17.54
2022-11-08T08:56:56.563Z,17.98
2022-11-08T09:04:01.642Z,18.74
2022-11-08T09:06:08.270Z,18.62
2022-11-08T09:08:15.339Z,18.78
2022-11-08T09:10:22.375Z,18.94
2022-11-08T09:12:31.290Z,19.07
2022-11-08T09:14:37.504Z,18.83
2022-11-08T09:16:44.494Z,18.68
2022-11-08T09:18:50.490Z,18.61
2022-11-08T09:21:00.739Z,18.72
2022-11-08T09:23:08.989Z,18.79
2022-11-08T09:25:15.005Z,18.71
2022-11-08T09:27:21.008Z,18.70
2022-11-08T09:29:30.329Z,18.69
2022-11-08T09:31:43.000Z,18.97
2022-11-08T09:33:54.129Z,18.94
2022-11-08T09:36:05.924Z,19.37
2022-11-08T09:38:11.926Z,19.63
2022-11-08T09:40:23.447Z,19.57
2022-11-08T09:43:08.892Z,19.45
2022-11-08T09:45:41.120Z,19.45
2022-11-08T09:47:54.690Z,19.60
2022-11-08T09:50:18.379Z,19.45
2022-11-08T09:52:30.507Z,19.36
2022-11-08T09:54:47.873Z,19.64
2022-11-08T09:56:57.985Z,19.60
2022-11-08T09:59:16.441Z,19.16
2022-11-08T10:01:27.577Z,19.47
2022-11-08T10:03:34.382Z,19.40
2022-11-08T10:05:49.798Z,19.39
2022-11-08T10:08:10.712Z,19.76
2022-11-08T10:11:00.547Z,19.26
2022-11-08T10:13:34.301Z,19.34
2022-11-08T10:15:57.206Z,19.51
2022-11-08T10:18:55.546Z,19.85
2022-11-08T10:21:17.931Z,20.05
2022-11-08T10:23:32.850Z,19.76
2022-11-08T10:25:48.061Z,19.83
2022-11-08T10:28:02.259Z,20.14
2022-11-08T10:30:21.008Z,20.23
2022-11-08T10:32:28.026Z,20.05
2022-11-08T10:34:52.230Z,20.04
2022-11-08T10:37:14.715Z,19.99
2022-11-08T10:39:29.684Z,19.90
2022-11-08T10:41:50.708Z,20.17
2022-11-08T10:44:08.679Z,20.17
2022-11-08T10:46:39.105Z,20.13
2022-11-08T10:48:45.870Z,19.96
2022-11-08T10:50:56.226Z,20.18
2022-11-08T10:53:05.464Z,20.36
2022-11-08T10:55:27.429Z,20.51
2022-11-08T10:57:45.738Z,20.90
2022-11-08T10:59:51.796Z,21.06
2022-11-08T11:01:58.562Z,21.35
2022-11-08T11:04:30.376Z,21.67
2022-11-08T11:06:39.250Z,21.87
2022-11-08T11:08:56.909Z,21.72
2022-11-08T11:11:29.317Z,21.48
2022-11-08T11:13:36.383Z,21.69
2022-11-08T11:15:51.357Z,21.56
2022-11-08T11:17:57.356Z,21.54
2022-11-08T11:20:03.559Z,21.69
2022-11-08T11:22:18.177Z,21.51
2022-11-08T11:24:25.884Z,21.48
2022-11-08T11:26:38.671Z,21.60
2022-11-08T11:29:18.827Z,21.73
2022-11-08T11:31:26.733Z,21.77
2022-11-08T11:33:33.920Z,21.74
2022-11-08T11:35:50.474Z,21.83
2022-11-08T11:38:09.748Z,21.89
2022-11-08T11:40:29.479Z,22.05
2022-11-08T11:42:47.656Z,22.22
2022-11-08T11:45:18.913Z,22.36
2022-11-08T11:47:36.363Z,22.40
2022-11-08T11:49:48.256Z,22.34
2022-11-08T11:51:56.848Z,22.27
2022-11-08T11:54:11.387Z,22.30
2022-11-08T11:56:47.759Z,22.27
2022-11-08T11:59:32.987Z,21.97
2022-11-08T12:02:06.218Z,21.87
2022-11-08T12:04:42.804Z,21.87
2022-11-08T12:07:05.490Z,21.77
2022-11-08T12:09:54.326Z,21.57
2022-11-08T12:12:27.006Z,21.34
2022-11-08T12:15:00.558Z,20.96
2022-11-08T12:17:52.182Z,20.97
2022-11-08T12:20:27.670Z,20.43
2022-11-08T12:23:03.433Z,20.12
2022-11-08T12:25:29.234Z,20.20
2022-11-08T12:27:58.347Z,20.35
2022-11-08T12:30:13.285Z,20.64
2022-11-08T12:33:12.835Z,20.21
2022-11-08T12:35:37.241Z,20.57
2022-11-08T12:38:10.520Z,20.37
2022-11-08T12:40:49.555Z,20.61
2022-11-08T12:43:29.930Z,19.96
2022-11-08T12:46:00.284Z,19.88
2022-11-08T12:48:29.868Z,19.87
2022-11-08T12:50:58.922Z,20.05
2022-11-08T12:53:48.821Z,20.18
2022-11-08T12:56:01.661Z,19.90
2022-11-08T12:58:33.094Z,19.89
2022-11-08T13:00:46.395Z,19.77
2022-11-08T13:03:21.842Z,19.86
2022-11-08T13:05:37.774Z,19.42
2022-11-08T13:07:55.401Z,19.54
2022-11-08T13:10:18.559Z,19.32
2022-11-08T13:13:02.463Z,18.92
2022-11-08T13:15:22.130Z,18.53
2022-11-08T13:17:30.398Z,18.29
2022-11-08T13:20:04.861Z,17.90
2022-11-08T13:22:47.934Z,17.38
2022-11-08T13:24:53.986Z,16.96
2022-11-08T13:27:27.181Z,16.67
2022-11-08T13:29:42.228Z,16.67
2022-11-08T13:32:00.691Z,16.61
2022-11-08T13:34:44.958Z,16.61
2022-11-08T13:37:18.153Z,16.62
2022-11-08T13:39:56.200Z,16.59
2022-11-08T13:42:08.596Z,16.54
2022-11-08T13:45:14.972Z,16.48
2022-11-08T13:47:53.608Z,16.46
2022-11-08T13:50:53.822Z,16.42
2022-11-08T13:53:11.144Z,16.37
2022-11-08T13:55:50.506Z,16.37
2022-11-08T13:58:03.966Z,16.31
2022-11-08T14:00:48.219Z,16.17
2022-11-08T14:02:54.068Z,16.09
2022-11-08T14:05:44.566Z,16.03
2022-11-08T14:08:25.862Z,15.97
2022-11-08T14:10:51.772Z,16.03
2022-11-08T14:13:21.207Z,16.01
2022-11-08T14:15:37.342Z,15.98
2022-11-08T14:17:50.566Z,15.96
2022-11-08T14:20:20.287Z,15.95
2022-11-08T14:22:32.905Z,15.91
2022-11-08T14:24:41.319Z,15.85
2022-11-08T14:26:50.663Z,15.80
2022-11-08T14:28:56.994Z,15.78
2022-11-08T14:31:09.821Z,15.77
2022-11-08T14:33:22.579Z,15.76
2022-11-08T14:35:29.387Z,15.73
2022-11-08T14:37:35.281Z,15.68
2022-11-08T14:39:41.990Z,15.61
2022-11-08T14:41:54.395Z,15.60
2022-11-08T14:44:05.051Z,15.57
2022-11-08T14:46:26.290Z,15.53
2022-11-08T14:48:34.313Z,15.48
2022-11-08T14:50:40.014Z,15.48
2022-11-08T14:52:46.751Z,15.47
2022-11-08T14:55:07.438Z,15.44
2022-11-08T14:57:39.551Z,15.34
2022-11-08T14:59:46.443Z,15.27
2022-11-08T15:01:55.416Z,15.19
2022-11-08T15:04:08.065Z,15.13
2022-11-08T15:06:14.813Z,15.07
2022-11-08T15:08:30.300Z,15.03
2022-11-08T15:10:36.445Z,14.97
2022-11-08T15:12:46.235Z,14.92
2022-11-08T15:14:59.277Z,14.88
2022-11-08T15:17:07.962Z,14.82
2022-11-08T15:19:35.922Z,14.74
2022-11-08T15:21:52.346Z,14.69
2022-11-08T15:24:15.174Z,14.63
2022-11-08T15:26:28.847Z,14.55
2022-11-08T15:28:37.351Z,14.43
2022-11-08T15:30:46.939Z,14.36
2022-11-08T15:32:56.305Z,14.26
2022-11-08T15:35:02.764Z,14.17
2022-11-08T15:37:23.723Z,14.06
2022-11-08T15:39:42.856Z,13.96
2022-11-08T15:42:04.149Z,13.87
2022-11-08T15:44:20.920Z,13.74
2022-11-08T15:46:31.775Z,13.73
2022-11-08T15:48:40.287Z,13.71
2022-11-08T15:50:46.105Z,13.67
2022-11-08T15:52:55.913Z,13.62
2022-11-08T15:55:01.647Z,13.58
2022-11-08T15:57:08.780Z,13.48
2022-11-08T15:59:22.216Z,13.37
2022-11-08T16:01:28.006Z,13.27
2022-11-08T16:03:35.714Z,13.18
2022-11-08T16:05:45.047Z,13.12
2022-11-08T16:07:51.144Z,13.04
2022-11-08T16:09:59.711Z,12.97
2022-11-08T16:12:07.438Z,12.93
2022-11-08T16:14:20.700Z,12.87
2022-11-08T16:16:32.603Z,12.81
2022-11-08T16:18:41.701Z,12.76
2022-11-08T16:20:50.493Z,12.71
2022-11-08T16:22:56.687Z,12.63
2022-11-08T16:25:03.251Z,12.64
2022-11-08T16:27:09.166Z,12.61
2022-11-08T16:29:23.550Z,12.60
2022-11-08T16:31:30.187Z,12.56
2022-11-08T16:33:38.371Z,12.49
2022-11-08T16:35:49.508Z,12.42
2022-11-08T16:37:56.698Z,12.36
2022-11-08T16:40:03.049Z,12.30
2022-11-08T16:42:12.007Z,12.25
2022-11-08T16:44:18.672Z,12.16
2022-11-08T16:46:26.350Z,12.12
2022-11-08T16:48:32.330Z,12.09
2022-11-08T16:50:40.517Z,12.07
2022-11-08T16:52:49.780Z,12.08
2022-11-08T16:54:55.556Z,12.07
2022-11-08T16:57:33.144Z,12.07
2022-11-08T16:59:28.068Z,12.06
2022-11-08T17:01:37.481Z,12.03
2022-11-08T17:03:46.306Z,12.00
2022-11-08T17:06:00.241Z,12.00
2022-11-08T17:08:10.024Z,12.01
2022-11-08T17:10:20.648Z,11.99
2022-11-08T17:12:26.992Z,11.95
2022-11-08T17:14:32.769Z,11.95
2022-11-08T17:16:39.431Z,11.88
2022-11-08T17:18:52.826Z,11.82
2022-11-08T17:21:07.581Z,11.73
2022-11-08T17:23:28.248Z,11.67
2022-11-08T17:25:36.259Z,11.68
2022-11-08T17:27:42.222Z,11.69
2022-11-08T17:29:48.893Z,11.68
2022-11-08T17:31:55.611Z,11.66
2022-11-08T17:34:10.370Z,11.69
2022-11-08T17:36:26.325Z,11.67
2022-11-08T17:38:37.091Z,11.67
2022-11-08T17:40:44.308Z,11.66
2022-11-08T17:42:51.101Z,11.60
2022-11-08T17:44:57.938Z,11.60
2022-11-08T17:47:04.044Z,11.57
2022-11-08T17:49:12.274Z,11.51
2022-11-08T17:51:18.131Z,11.52
2022-11-08T17:53:28.174Z,11.46
2022-11-08T17:55:37.445Z,11.48
2022-11-08T17:57:43.224Z,11.46
2022-11-08T17:59:49.364Z,11.44
2022-11-08T18:01:59.243Z,11.43
2022-11-08T18:04:07.867Z,11.45
2022-11-08T18:06:17.146Z,11.44
2022-11-08T18:08:27.108Z,11.42
2022-11-08T18:10:33.156Z,11.39
2022-11-08T18:12:44.633Z,11.37
2022-11-08T18:14:51.243Z,11.33
2022-11-08T18:16:58.069Z,11.32
2022-11-08T18:19:11.659Z,11.28
2022-11-08T18:21:19.351Z,11.26
2022-11-08T18:23:25.372Z,11.22
2022-11-08T18:25:31.597Z,11.22
2022-11-08T18:27:38.983Z,11.24
2022-11-08T18:29:47.651Z,11.24
2022-11-08T18:31:54.136Z,11.23
2022-11-08T18:34:00.939Z,11.21
2022-11-08T18:36:22.032Z,11.21
2022-11-08T18:38:28.262Z,11.19
2022-11-08T18:40:36.317Z,11.17
2022-11-08T18:42:44.795Z,11.16
2022-11-08T18:44:53.297Z,11.15
2022-11-08T18:46:59.989Z,11.13
2022-11-08T18:49:23.112Z,11.13
2022-11-08T18:51:29.113Z,11.12
2022-11-08T18:53:38.444Z,11.05
2022-11-08T18:55:48.134Z,11.09
2022-11-08T18:57:54.048Z,11.08
2022-11-08T19:00:04.680Z,11.05
2022-11-08T19:02:13.033Z,11.05
2022-11-08T19:04:19.430Z,11.05
2022-11-08T19:06:26.106Z,11.03
2022-11-08T19:08:32.875Z,11.04
2022-11-08T19:10:42.126Z,11.03
2022-11-08T19:12:49.185Z,11.02
2022-11-08T19:14:55.528Z,10.97
2022-11-08T19:17:06.120Z,10.99
2022-11-08T19:19:12.664Z,10.97
2022-11-08T19:21:21.816Z,10.96
2022-11-08T19:23:30.375Z,10.92
2022-11-08T19:25:37.109Z,10.92
2022-11-08T19:27:43.365Z,10.91
2022-11-08T19:29:49.532Z,10.86
2022-11-08T19:31:56.311Z,10.82
2022-11-08T19:34:06.348Z,10.80
2022-11-08T19:36:17.348Z,10.77
2022-11-08T19:38:25.212Z,10.77
2022-11-08T19:40:32.736Z,10.73
2022-11-08T19:42:38.641Z,10.68
2022-11-08T19:44:47.426Z,10.65
2022-11-08T19:46:54.520Z,10.63
2022-11-08T19:49:08.505Z,10.59
2022-11-08T19:51:20.176Z,10.55
2022-11-08T19:53:27.640Z,10.53
2022-11-08T19:55:34.726Z,10.52
2022-11-08T19:57:42.778Z,10.49
2022-11-08T19:59:51.365Z,10.46
2022-11-08T20:02:00.028Z,10.44
2022-11-08T20:04:13.113Z,10.39
2022-11-08T20:06:23.411Z,10.39
2022-11-08T20:08:31.787Z,10.39
2022-11-08T20:10:42.340Z,10.37
2022-11-08T20:12:49.460Z,10.34
2022-11-08T20:14:56.311Z,10.32
2022-11-08T20:17:03.697Z,10.30
2022-11-08T20:19:15.484Z,10.27
2022-11-08T20:21:22.219Z,10.25
2022-11-08T20:23:29.838Z,10.23
2022-11-08T20:25:39.165Z,10.19
2022-11-08T20:27:45.635Z,10.17
2022-11-08T20:29:52.487Z,10.16
2022-11-08T20:31:58.511Z,10.14
2022-11-08T20:34:12.016Z,10.12
2022-11-08T20:36:24.262Z,10.08
2022-11-08T20:38:30.283Z,10.10
2022-11-08T20:42:18.659Z,9.03
2022-11-08T20:44:25.415Z,9.06
2022-11-08T20:46:32.757Z,9.04
2022-11-08T20:48:42.935Z,9.03
2022-11-08T20:50:50.006Z,9.02
2022-11-08T20:52:56.034Z,8.99
2022-11-08T20:55:08.515Z,8.96
2022-11-08T20:57:17.996Z,8.92
2022-11-08T20:59:23.838Z,8.92
2022-11-08T21:01:33.093Z,8.85
2022-11-08T21:03:46.957Z,8.85
2022-11-08T21:05:58.451Z,8.84
2022-11-08T21:08:57.151Z,8.80
2022-11-08T21:10:42.766Z,8.81
2022-11-08T21:12:52.275Z,8.81
2022-11-08T21:14:58.737Z,8.79
2022-11-08T21:17:21.931Z,8.83
2022-11-08T21:19:29.040Z,8.80
2022-11-08T21:21:36.298Z,8.80
2022-11-08T21:23:45.954Z,8.80
2022-11-08T21:25:56.320Z,8.80
2022-11-08T21:28:05.605Z,8.79
2022-11-08T21:30:14.322Z,8.79
2022-11-08T21:32:28.794Z,8.76
2022-11-08T21:34:37.225Z,8.78
2022-11-08T21:36:47.211Z,8.76
2022-11-08T21:38:53.175Z,8.73
2022-11-08T21:41:08.224Z,8.71
2022-11-08T21:43:19.450Z,8.67
2022-11-08T21:45:30.842Z,8.64
2022-11-08T21:47:36.816Z,8.61
2022-11-08T21:49:43.553Z,8.59
2022-11-08T21:51:56.161Z,8.59
2022-11-08T21:54:02.774Z,8.59
2022-11-08T21:56:10.328Z,8.60
2022-11-08T21:58:19.237Z,8.60
2022-11-08T22:00:25.849Z,8.56
2022-11-08T22:02:32.698Z,8.56
2022-11-08T22:04:38.749Z,8.56
2022-11-08T22:06:55.470Z,8.54
2022-11-08T22:09:02.674Z,8.52
2022-11-08T22:11:10.178Z,8.45
2022-11-08T22:13:19.053Z,8.38
2022-11-08T22:15:29.535Z,8.37
2022-11-08T22:18:14.440Z,8.34
2022-11-08T22:20:15.509Z,8.31
2022-11-08T22:22:22.551Z,8.26
2022-11-08T22:24:28.670Z,8.21
2022-11-08T22:26:35.128Z,8.19
2022-11-08T22:28:44.779Z,8.18
2022-11-08T22:30:55.222Z,8.19
2022-11-08T22:33:01.486Z,8.16
2022-11-08T22:35:13.643Z,8.14
2022-11-08T22:37:20.055Z,8.10
2022-11-08T22:39:28.163Z,8.09
2022-11-08T22:41:36.051Z,8.09
2022-11-08T22:43:44.822Z,8.08
2022-11-08T22:45:51.036Z,8.08
2022-11-08T22:47:58.081Z,8.09
2022-11-08T22:50:05.405Z,8.10
2022-11-08T22:52:11.759Z,8.16
2022-11-08T22:54:18.742Z,8.20
2022-11-08T22:56:25.054Z,8.22
2022-11-08T22:58:31.671Z,8.27
2022-11-08T23:00:42.814Z,8.28
2022-11-08T23:02:49.710Z,8.29
2022-11-08T23:04:55.988Z,8.26
2022-11-08T23:07:02.912Z,8.26
2022-11-08T23:09:11.686Z,8.26
2022-11-08T23:11:36.123Z,8.25
2022-11-08T23:13:56.324Z,8.23
2022-11-08T23:16:17.267Z,8.22
2022-11-08T23:18:25.164Z,8.23
2022-11-08T23:20:50.235Z,8.23
2022-11-08T23:23:08.678Z,8.25
2022-11-08T23:25:15.197Z,8.26
2022-11-08T23:27:35.468Z,8.27
2022-11-08T23:29:54.003Z,8.32
2022-11-08T23:32:03.252Z,8.33
2022-11-08T23:34:10.638Z,8.34
2022-11-08T23:36:17.203Z,8.34
2022-11-08T23:38:23.218Z,8.34
2022-11-08T23:40:46.272Z,8.33
2022-11-08T23:43:04.510Z,8.33
2022-11-08T23:45:12.648Z,8.28
2022-11-08T23:47:25.260Z,8.24
2022-11-08T23:49:31.354Z,8.21
2022-11-08T23:51:37.173Z,8.18
2022-11-08T23:53:44.122Z,8.11
2022-11-08T23:55:50.118Z,8.02
2022-11-08T23:57:55.755Z,8.06
